NV115 YFLI-YMEN
Flight info
| Callsign | NV115 |
|---|---|
| Flight time | 0h 31m |
| Altitude | 20000 |
| Route | NUNPA W562 ONAGI H215 WAREN W495 MONTY |
| Aircraft | C25B/M-SDE2E3FGHRWXY/LB1 |
Departure
| Time | 2026-05-05 09:54 |
|---|---|
| Airport | Flinders Island Airport (YFLI) |
Arrival
| Time | 2026-05-05 10:25 |
|---|---|
| Airport | Melbourne Essendon Airport (YMEN) |
| Time | Latitude | Longitude | Altitude | Speed | Heading |
|---|---|---|---|---|---|
| 2026-05-05 09:54 | -39.99277 | 147.84169 | 20144 ft | 356 kts | 307° |
| 2026-05-05 09:54 | -39.97547 | 147.81680 | 20140 ft | 393 kts | 309° |
| 2026-05-05 09:54 | -39.95665 | 147.78923 | 20149 ft | 420 kts | 307° |
| 2026-05-05 09:55 | -39.93730 | 147.75961 | 20151 ft | 430 kts | 307° |
| 2026-05-05 09:55 | -39.91814 | 147.73051 | 20153 ft | 415 kts | 307° |
| 2026-05-05 09:55 | -39.89915 | 147.70200 | 20148 ft | 419 kts | 307° |
| 2026-05-05 09:55 | -39.87992 | 147.67312 | 20151 ft | 424 kts | 308° |
| 2026-05-05 09:56 | -39.86052 | 147.64400 | 20149 ft | 423 kts | 307° |
| 2026-05-05 09:56 | -39.84135 | 147.61515 | 20154 ft | 419 kts | 307° |
| 2026-05-05 09:56 | -39.82223 | 147.58648 | 20158 ft | 418 kts | 307° |
| 2026-05-05 09:56 | -39.80332 | 147.55815 | 20157 ft | 413 kts | 307° |
| 2026-05-05 09:57 | -39.78466 | 147.53016 | 20162 ft | 417 kts | 307° |
| 2026-05-05 09:57 | -39.76554 | 147.50153 | 20160 ft | 421 kts | 308° |
| 2026-05-05 09:57 | -39.74631 | 147.47279 | 20164 ft | 420 kts | 308° |
| 2026-05-05 09:57 | -39.72711 | 147.44420 | 20155 ft | 418 kts | 308° |
| 2026-05-05 09:58 | -39.70794 | 147.41555 | 20162 ft | 421 kts | 308° |
| 2026-05-05 09:58 | -39.68869 | 147.38679 | 20157 ft | 422 kts | 308° |
| 2026-05-05 09:58 | -39.66934 | 147.35800 | 20159 ft | 424 kts | 308° |
| 2026-05-05 09:58 | -39.64993 | 147.32917 | 20164 ft | 425 kts | 308° |
| 2026-05-05 09:59 | -39.63072 | 147.30052 | 20167 ft | 425 kts | 308° |
| 2026-05-05 09:59 | -39.61116 | 147.27156 | 20173 ft | 426 kts | 308° |
| 2026-05-05 09:59 | -39.59164 | 147.24251 | 20170 ft | 426 kts | 308° |
| 2026-05-05 09:59 | -39.57207 | 147.21358 | 20177 ft | 426 kts | 308° |
| 2026-05-05 10:00 | -39.55256 | 147.18461 | 20173 ft | 427 kts | 308° |
| 2026-05-05 10:00 | -39.53298 | 147.15571 | 20172 ft | 427 kts | 308° |
| 2026-05-05 10:00 | -39.51345 | 147.12676 | 20176 ft | 427 kts | 308° |
| 2026-05-05 10:00 | -39.49385 | 147.09788 | 20167 ft | 425 kts | 308° |
| 2026-05-05 10:01 | -39.47439 | 147.06911 | 20169 ft | 424 kts | 308° |
| 2026-05-05 10:01 | -39.45517 | 147.04083 | 20169 ft | 424 kts | 308° |
| 2026-05-05 10:01 | -39.43577 | 147.01220 | 20174 ft | 423 kts | 308° |
| 2026-05-05 10:01 | -39.41631 | 146.98360 | 20169 ft | 423 kts | 308° |
| 2026-05-05 10:02 | -39.39690 | 146.95497 | 20172 ft | 422 kts | 308° |
| 2026-05-05 10:02 | -39.37741 | 146.92645 | 20173 ft | 423 kts | 308° |
| 2026-05-05 10:02 | -39.35795 | 146.89786 | 20173 ft | 423 kts | 308° |
| 2026-05-05 10:02 | -39.33847 | 146.86932 | 20172 ft | 423 kts | 308° |
| 2026-05-05 10:03 | -39.31904 | 146.84081 | 20174 ft | 423 kts | 308° |
| 2026-05-05 10:03 | -39.29953 | 146.81229 | 20179 ft | 424 kts | 309° |
| 2026-05-05 10:03 | -39.28004 | 146.78379 | 20178 ft | 424 kts | 308° |
| 2026-05-05 10:03 | -39.26049 | 146.75522 | 20178 ft | 424 kts | 309° |
| 2026-05-05 10:04 | -39.24092 | 146.72668 | 20179 ft | 424 kts | 308° |
| 2026-05-05 10:04 | -39.22141 | 146.69819 | 20179 ft | 424 kts | 309° |
| 2026-05-05 10:04 | -39.20205 | 146.67003 | 20179 ft | 424 kts | 308° |
| 2026-05-05 10:04 | -39.18253 | 146.64156 | 20184 ft | 424 kts | 309° |
| 2026-05-05 10:05 | -39.16295 | 146.61315 | 20186 ft | 424 kts | 308° |
| 2026-05-05 10:05 | -39.14341 | 146.58469 | 20186 ft | 424 kts | 309° |
| 2026-05-05 10:05 | -39.12375 | 146.55624 | 20186 ft | 424 kts | 309° |
| 2026-05-05 10:05 | -39.10417 | 146.52776 | 20186 ft | 424 kts | 309° |
| 2026-05-05 10:06 | -39.08454 | 146.49940 | 20190 ft | 424 kts | 309° |
| 2026-05-05 10:06 | -39.06494 | 146.47094 | 20190 ft | 424 kts | 309° |
| 2026-05-05 10:06 | -39.04553 | 146.44293 | 20181 ft | 424 kts | 309° |
| 2026-05-05 10:06 | -39.02591 | 146.41454 | 20191 ft | 424 kts | 308° |
| 2026-05-05 10:07 | -39.00619 | 146.38603 | 20192 ft | 425 kts | 309° |
| 2026-05-05 10:07 | -38.98650 | 146.35772 | 20191 ft | 425 kts | 309° |
| 2026-05-05 10:07 | -38.96678 | 146.32926 | 20190 ft | 425 kts | 309° |
| 2026-05-05 10:07 | -38.94703 | 146.30083 | 20192 ft | 425 kts | 309° |
| 2026-05-05 10:08 | -38.92735 | 146.27247 | 20192 ft | 426 kts | 309° |
| 2026-05-05 10:08 | -38.90757 | 146.24414 | 20192 ft | 426 kts | 309° |
| 2026-05-05 10:08 | -38.88809 | 146.21608 | 20194 ft | 426 kts | 309° |
| 2026-05-05 10:08 | -38.86828 | 146.18773 | 20200 ft | 426 kts | 309° |
| 2026-05-05 10:09 | -38.84854 | 146.15937 | 20200 ft | 426 kts | 309° |
| 2026-05-05 10:09 | -38.82875 | 146.13110 | 20200 ft | 426 kts | 309° |
| 2026-05-05 10:09 | -38.80899 | 146.10277 | 20200 ft | 426 kts | 309° |
| 2026-05-05 10:09 | -38.78917 | 146.07448 | 20203 ft | 426 kts | 309° |
| 2026-05-05 10:10 | -38.76937 | 146.04616 | 20201 ft | 426 kts | 309° |
| 2026-05-05 10:10 | -38.74956 | 146.01792 | 20203 ft | 426 kts | 309° |
| 2026-05-05 10:10 | -38.72972 | 145.98964 | 20206 ft | 426 kts | 309° |
| 2026-05-05 10:10 | -38.70990 | 145.96140 | 20206 ft | 426 kts | 309° |
| 2026-05-05 10:11 | -38.69004 | 145.93316 | 20206 ft | 426 kts | 309° |
| 2026-05-05 10:11 | -38.67020 | 145.90487 | 20209 ft | 426 kts | 309° |
| 2026-05-05 10:11 | -38.65028 | 145.87669 | 20212 ft | 427 kts | 309° |
| 2026-05-05 10:11 | -38.63066 | 145.84876 | 20212 ft | 427 kts | 309° |
| 2026-05-05 10:12 | -38.61075 | 145.82058 | 20214 ft | 427 kts | 309° |
| 2026-05-05 10:12 | -38.59085 | 145.79233 | 20214 ft | 427 kts | 309° |
| 2026-05-05 10:12 | -38.57084 | 145.76408 | 20213 ft | 428 kts | 310° |
| 2026-05-05 10:12 | -38.55091 | 145.73582 | 20213 ft | 428 kts | 310° |
| 2026-05-05 10:13 | -38.53087 | 145.70759 | 20215 ft | 428 kts | 310° |
| 2026-05-05 10:13 | -38.51096 | 145.67940 | 20215 ft | 428 kts | 310° |
| 2026-05-05 10:13 | -38.49085 | 145.65111 | 19879 ft | 428 kts | 310° |
| 2026-05-05 10:13 | -38.46926 | 145.62586 | 19326 ft | 418 kts | 320° |
| 2026-05-05 10:14 | -38.44488 | 145.60505 | 18777 ft | 426 kts | 328° |
| 2026-05-05 10:14 | -38.41877 | 145.58762 | 18192 ft | 421 kts | 329° |
| 2026-05-05 10:14 | -38.39330 | 145.56974 | 17634 ft | 415 kts | 328° |
| 2026-05-05 10:14 | -38.36815 | 145.55198 | 17088 ft | 413 kts | 329° |
| 2026-05-05 10:15 | -38.34273 | 145.53479 | 16545 ft | 413 kts | 330° |
| 2026-05-05 10:15 | -38.31737 | 145.51756 | 15997 ft | 412 kts | 329° |
| 2026-05-05 10:15 | -38.29219 | 145.50017 | 15457 ft | 412 kts | 329° |
| 2026-05-05 10:15 | -38.26736 | 145.48295 | 14921 ft | 411 kts | 329° |
| 2026-05-05 10:16 | -38.24218 | 145.46579 | 14379 ft | 409 kts | 329° |
| 2026-05-05 10:16 | -38.21728 | 145.44873 | 13821 ft | 402 kts | 329° |
| 2026-05-05 10:16 | -38.19285 | 145.43203 | 13283 ft | 395 kts | 329° |
| 2026-05-05 10:16 | -38.16885 | 145.41554 | 12763 ft | 390 kts | 329° |
| 2026-05-05 10:17 | -38.14505 | 145.39927 | 12260 ft | 386 kts | 329° |
| 2026-05-05 10:17 | -38.12148 | 145.38318 | 11752 ft | 383 kts | 329° |
| 2026-05-05 10:17 | -38.09812 | 145.36719 | 11256 ft | 380 kts | 329° |
| 2026-05-05 10:17 | -38.07477 | 145.35132 | 10759 ft | 379 kts | 329° |
| 2026-05-05 10:18 | -38.05162 | 145.33545 | 10265 ft | 378 kts | 329° |
| 2026-05-05 10:18 | -38.02837 | 145.31967 | 9545 ft | 381 kts | 329° |
| 2026-05-05 10:18 | -38.00511 | 145.30376 | 8999 ft | 378 kts | 329° |
| 2026-05-05 10:18 | -37.98207 | 145.28797 | 8510 ft | 374 kts | 329° |
| 2026-05-05 10:19 | -37.95934 | 145.27221 | 8035 ft | 372 kts | 329° |
| 2026-05-05 10:19 | -37.93664 | 145.25672 | 7568 ft | 369 kts | 329° |
| 2026-05-05 10:19 | -37.91438 | 145.24136 | 7111 ft | 367 kts | 329° |
| 2026-05-05 10:19 | -37.89190 | 145.22600 | 6658 ft | 366 kts | 329° |
| 2026-05-05 10:20 | -37.86962 | 145.21062 | 6172 ft | 364 kts | 330° |
| 2026-05-05 10:20 | -37.84762 | 145.19562 | 5700 ft | 351 kts | 330° |
| 2026-05-05 10:20 | -37.82663 | 145.18122 | 5248 ft | 337 kts | 330° |
| 2026-05-05 10:20 | -37.80613 | 145.16718 | 4787 ft | 333 kts | 330° |
| 2026-05-05 10:21 | -37.78584 | 145.15328 | 4334 ft | 330 kts | 330° |
| 2026-05-05 10:21 | -37.76656 | 145.13817 | 3877 ft | 323 kts | 320° |
| 2026-05-05 10:21 | -37.75092 | 145.11829 | 3437 ft | 316 kts | 309° |
| 2026-05-05 10:21 | -37.73901 | 145.09527 | 2971 ft | 312 kts | 296° |
| 2026-05-05 10:22 | -37.73128 | 145.07088 | 2535 ft | 283 kts | 285° |
| 2026-05-05 10:22 | -37.72783 | 145.04769 | 2103 ft | 256 kts | 276° |
| 2026-05-05 10:22 | -37.72739 | 145.02607 | 1732 ft | 237 kts | 268° |
| 2026-05-05 10:22 | -37.72835 | 145.00667 | 1723 ft | 208 kts | 266° |
| 2026-05-05 10:23 | -37.72876 | 144.98984 | 1464 ft | 171 kts | 269° |
| 2026-05-05 10:23 | -37.72895 | 144.98057 | 1335 ft | 145 kts | 269° |
| 2026-05-05 10:23 | -37.72937 | 144.96622 | 1085 ft | 112 kts | 269° |
| 2026-05-05 10:23 | -37.72963 | 144.95615 | 935 ft | 116 kts | 269° |
| 2026-05-05 10:24 | -37.72994 | 144.94603 | 787 ft | 114 kts | 269° |
| 2026-05-05 10:24 | -37.73021 | 144.93931 | 683 ft | 113 kts | 268° |
| 2026-05-05 10:24 | -37.73051 | 144.92639 | 491 ft | 109 kts | 269° |
| 2026-05-05 10:24 | -37.73065 | 144.92007 | 376 ft | 103 kts | 270° |
| 2026-05-05 10:25 | -37.73087 | 144.91152 | 252 ft | 90 kts | 267° |
| 2026-05-05 10:25 | -37.73105 | 144.90497 | 253 ft | 54 kts | 267° |
| 2026-05-05 10:25 | -37.73115 | 144.90143 | 257 ft | 32 kts | 268° |
| 2026-05-05 10:25 | -37.73065 | 144.90005 | 257 ft | 18 kts | 355° |
| 2026-05-05 10:26 | -37.72916 | 144.89991 | 260 ft | 21 kts | 328° |
| 2026-05-05 10:26 | -37.72874 | 144.89882 | 260 ft | 5 kts | 358° |
| 2026-05-05 10:26 | -37.72859 | 144.89882 | 260 ft | 0 kts | 1° |